9°C Temp
-9°C Dewpoint
27% Humidity
Temperature
26 KM/H
16 MPH
14 KTS
310°
North West

Wind Speed
Partly Cloudy
Conditions
Pressure 1013.92 (hPa) - 29.94 (in)
Visibility 6.2 (mi) - 10.0 (km)

Current Conditions
LGAV
Location 12(km)
Metar :LGAV 281050Z 31014KT 9999 FEW025 09/M09 Q1014 NOSIG
Thu 28th January 12:50 pm

Airport
  Metar Aviation API Data Provided by https://www.checkwx.com/ PHP scripts by weather34.com ©2021